Time;durP1;ratioP1;P1;durP2;ratioP2;P2;SDS_P1;SDS_P2;PMS_P1;PMS_P2;Temp;Humidity;BMP_temperature;BMP_pressure;BME280_temperature;BME280_humidity;BME280_pressure;Samples;Min_cycle;Max_cycle;Signal;HPM_P1;HPM_P2
2022/04/27 00:02:04;;;;;;;0.40;0.40;;;8.80;1.00;;;;;;5021477;28;20340;-55
2022/04/27 00:04:31;;;;;;;0.40;0.40;;;8.80;1.00;;;;;;5000720;28;20288;-55
2022/04/27 00:06:59;;;;;;;0.40;0.40;;;8.80;1.00;;;;;;5021524;28;20700;-54
2022/04/27 00:09:26;;;;;;;0.40;0.40;;;9.00;99.90;;;;;;5018349;28;20192;-55
2022/04/27 00:11:55;;;;;;;0.40;0.40;;;8.80;99.90;;;;;;5020580;28;20227;-56
2022/04/27 00:14:23;;;;;;;0.40;0.40;;;8.80;99.90;;;;;;5014403;28;20296;-57
2022/04/27 00:16:50;;;;;;;0.40;0.40;;;8.80;99.90;;;;;;5017497;28;20316;-56
2022/04/27 00:19:17;;;;;;;0.40;0.40;;;8.80;99.90;;;;;;5022096;28;20215;-56
2022/04/27 00:21:44;;;;;;;0.40;0.40;;;8.80;99.90;;;;;;5018581;28;20248;-55
2022/04/27 00:24:11;;;;;;;0.40;0.40;;;8.90;99.90;;;;;;5022383;28;21077;-54
2022/04/27 00:26:38;;;;;;;0.40;0.40;;;8.90;99.90;;;;;;5018226;28;20204;-56
2022/04/27 00:29:05;;;;;;;0.40;0.40;;;8.90;99.90;;;;;;5021694;28;20207;-56
2022/04/27 00:31:32;;;;;;;0.40;0.40;;;8.80;99.90;;;;;;5037492;28;20201;-56
2022/04/27 00:34:00;;;;;;;0.40;0.40;;;8.80;99.90;;;;;;5023048;28;20275;-56
2022/04/27 00:36:28;;;;;;;0.40;0.40;;;8.80;99.90;;;;;;5039577;28;20416;-56
2022/04/27 00:38:55;;;;;;;0.40;0.40;;;8.70;99.90;;;;;;5023085;28;20239;-56
2022/04/27 00:41:22;;;;;;;0.40;0.40;;;8.80;99.90;;;;;;5050646;28;20261;-56
2022/04/27 00:43:48;;;;;;;0.40;0.40;;;8.70;99.90;;;;;;5058929;28;20696;-55
2022/04/27 00:46:16;;;;;;;0.40;0.40;;;8.80;99.90;;;;;;5047828;28;20198;-55
2022/04/27 00:48:43;;;;;;;0.40;0.40;;;8.70;96.20;;;;;;5032283;28;20198;-55
2022/04/27 00:51:22;;;;;;;0.37;0.37;;;8.70;99.90;;;;;;5069554;28;20289;-55
2022/04/27 00:53:50;;;;;;;0.40;0.40;;;8.70;99.90;;;;;;5067432;28;20191;-56
2022/04/27 00:56:21;;;;;;;0.40;0.40;;;8.70;99.90;;;;;;5066254;28;20195;-56
2022/04/27 00:58:48;;;;;;;0.40;0.40;;;8.70;99.90;;;;;;5041958;28;20210;-55
2022/04/27 01:01:18;;;;;;;0.27;0.27;;;8.70;99.90;;;;;;5050055;28;20253;-55
2022/04/27 01:03:46;;;;;;;0.40;0.40;;;8.70;99.90;;;;;;5051001;28;20238;-56
2022/04/27 01:06:13;;;;;;;0.40;0.40;;;8.70;99.90;;;;;;5031839;28;20193;-58
2022/04/27 01:08:40;;;;;;;0.40;0.40;;;8.60;99.90;;;;;;5050403;28;20194;-59
2022/04/27 01:11:07;;;;;;;0.30;0.30;;;8.60;99.90;;;;;;5052225;28;20259;-55
2022/04/27 01:13:42;;;;;;;0.40;0.40;;;8.50;99.90;;;;;;5051652;28;20186;-56
2022/04/27 01:16:10;;;;;;;0.30;0.30;;;8.50;99.90;;;;;;5049160;28;20252;-56
2022/04/27 01:18:38;;;;;;;0.40;0.40;;;8.40;99.90;;;;;;5067334;28;20680;-55
2022/04/27 01:21:05;;;;;;;0.40;0.40;;;8.30;99.90;;;;;;5054480;28;20198;-55
2022/04/27 01:23:40;;;;;;;0.40;0.40;;;8.20;99.90;;;;;;5052244;28;21103;-55
2022/04/27 01:26:07;;;;;;;0.40;0.40;;;8.00;99.90;;;;;;5068027;28;20199;-56
2022/04/27 01:28:38;;;;;;;0.40;0.40;;;8.00;99.90;;;;;;5053330;28;20229;-55
2022/04/27 01:31:10;;;;;;;0.40;0.40;;;7.90;1.00;;;;;;5054853;28;20203;-57
2022/04/27 01:33:38;;;;;;;0.40;0.40;;;7.80;1.00;;;;;;5057994;28;20205;-58
2022/04/27 01:36:07;;;;;;;0.40;0.40;;;7.70;99.90;;;;;;5068319;28;20233;-55
2022/04/27 01:38:36;;;;;;;1.17;1.17;;;7.70;1.00;;;;;;5040962;28;20605;-55
2022/04/27 01:41:04;;;;;;;0.40;0.40;;;7.60;1.00;;;;;;5050897;28;20320;-56
2022/04/27 01:43:33;;;;;;;0.43;0.43;;;7.60;1.00;;;;;;5028204;28;20215;-55
2022/04/27 01:46:01;;;;;;;0.40;0.40;;;7.50;1.00;;;;;;5054555;28;20670;-55
2022/04/27 01:48:31;;;;;;;0.40;0.40;;;7.50;1.00;;;;;;5053568;28;20190;-56
2022/04/27 01:50:58;;;;;;;0.50;0.50;;;7.40;1.00;;;;;;5032991;28;20222;-56
2022/04/27 01:56:12;;;;;;;0.40;0.40;;;7.10;1.00;;;;;;5040844;28;20715;-58
2022/04/27 01:58:43;;;;;;;0.83;0.80;;;7.00;1.00;;;;;;5053790;28;20199;-56
2022/04/27 02:01:11;;;;;;;0.40;0.40;;;6.90;1.00;;;;;;5036063;28;20230;-56
2022/04/27 02:03:40;;;;;;;0.40;0.40;;;6.90;1.00;;;;;;5052683;28;20214;-57
2022/04/27 02:06:16;;;;;;;0.40;0.40;;;6.80;1.00;;;;;;5050840;28;20206;-57
2022/04/27 02:08:44;;;;;;;0.40;0.40;;;6.70;1.00;;;;;;5049628;28;20885;-57
2022/04/27 02:11:12;;;;;;;0.40;0.40;;;6.60;99.90;;;;;;5056790;28;20286;-56
2022/04/27 02:13:53;;;;;;;0.40;0.40;;;6.50;99.90;;;;;;5038928;28;20218;-56
2022/04/27 02:16:24;;;;;;;0.40;0.40;;;6.50;99.90;;;;;;5049096;28;20194;-57
2022/04/27 02:18:52;;;;;;;0.40;0.40;;;6.40;99.90;;;;;;5057236;28;20210;-56
2022/04/27 02:21:20;;;;;;;0.40;0.40;;;6.40;99.90;;;;;;5051027;28;20230;-56
2022/04/27 02:23:49;;;;;;;0.40;0.40;;;6.40;1.00;;;;;;5056752;28;20207;-55
2022/04/27 02:26:17;;;;;;;0.40;0.40;;;6.30;1.00;;;;;;5071995;28;20229;-56
2022/04/27 02:28:44;;;;;;;0.40;0.40;;;6.20;1.00;;;;;;5053005;28;20196;-56
2022/04/27 02:31:11;;;;;;;0.40;0.40;;;6.20;1.00;;;;;;5069323;28;20810;-55
2022/04/27 02:33:38;;;;;;;0.40;0.40;;;6.10;1.00;;;;;;5069828;28;20302;-55
2022/04/27 02:36:05;;;;;;;0.40;0.40;;;6.10;1.00;;;;;;5061800;28;20239;-55
2022/04/27 02:38:34;;;;;;;0.40;0.40;;;6.10;1.00;;;;;;5070290;28;20379;-57
2022/04/27 02:41:04;;;;;;;0.40;0.40;;;6.10;1.00;;;;;;5054820;28;20222;-56
2022/04/27 02:43:31;;;;;;;0.40;0.40;;;6.00;1.00;;;;;;5055676;28;20207;-55
2022/04/27 02:45:59;;;;;;;0.40;0.40;;;6.00;1.00;;;;;;5072449;28;20187;-55
2022/04/27 02:48:26;;;;;;;0.40;0.40;;;6.00;1.00;;;;;;5054398;28;20686;-56
2022/04/27 02:53:39;;;;;;;0.40;0.40;;;5.90;1.00;;;;;;5072835;28;20202;-56
2022/04/27 02:56:06;;;;;;;0.40;0.40;;;5.90;1.00;;;;;;5057131;28;20235;-54
2022/04/27 02:58:33;;;;;;;0.40;0.40;;;5.80;1.00;;;;;;5074304;28;20279;-55
2022/04/27 03:01:00;;;;;;;0.40;0.40;;;5.70;1.00;;;;;;5054313;28;20226;-54
2022/04/27 03:03:27;;;;;;;0.40;0.40;;;5.80;1.00;;;;;;5074364;28;20214;-55
2022/04/27 03:05:56;;;;;;;0.40;0.40;;;5.80;1.00;;;;;;5041382;28;20195;-55
2022/04/27 03:08:23;;;;;;;0.40;0.40;;;5.70;1.00;;;;;;5073932;28;20295;-55
2022/04/27 03:10:51;;;;;;;0.40;0.40;;;5.80;1.00;;;;;;5058036;28;20198;-55
2022/04/27 03:13:23;;;;;;;0.40;0.40;;;5.80;1.00;;;;;;5037379;28;20550;-54
2022/04/27 03:15:58;;;;;;;0.40;0.40;;;5.80;1.00;;;;;;5052376;28;20200;-55
2022/04/27 03:18:25;;;;;;;0.40;0.40;;;5.70;1.00;;;;;;5056914;28;20537;-54
2022/04/27 03:20:52;;;;;;;0.40;0.40;;;5.60;1.00;;;;;;5073195;28;20253;-54
2022/04/27 03:23:21;;;;;;;0.40;0.40;;;5.60;1.00;;;;;;5068699;28;20202;-54
2022/04/27 03:25:52;;;;;;;0.40;0.40;;;5.60;1.00;;;;;;5039145;28;20677;-54
2022/04/27 03:28:18;;;;;;;0.30;0.30;;;5.60;1.00;;;;;;5041334;28;20246;-54
2022/04/27 03:30:47;;;;;;;0.40;0.40;;;5.60;1.00;;;;;;5067975;28;20203;-54
2022/04/27 03:33:27;;;;;;;0.40;0.40;;;5.50;46.80;;;;;;5053979;28;21574;-54
2022/04/27 03:35:54;;;;;;;0.40;0.40;;;5.40;96.20;;;;;;5072592;28;20230;-54
2022/04/27 03:38:21;;;;;;;0.40;0.40;;;5.50;99.90;;;;;;5073956;28;20696;-54
2022/04/27 03:40:48;;;;;;;0.40;0.40;;;5.40;99.90;;;;;;5067142;28;20280;-55
2022/04/27 03:43:17;;;;;;;0.40;0.40;;;5.40;99.90;;;;;;5065022;28;20218;-55
2022/04/27 03:45:44;;;;;;;0.40;0.40;;;5.40;99.90;;;;;;5048853;28;20270;-55
2022/04/27 03:48:11;;;;;;;0.40;0.40;;;5.50;1.00;;;;;;5052452;28;20706;-55
2022/04/27 03:50:39;;;;;;;0.40;0.40;;;5.60;1.00;;;;;;5057202;28;20706;-55
2022/04/27 03:53:06;;;;;;;0.40;0.40;;;5.60;99.90;;;;;;5043237;28;20595;-55
2022/04/27 03:55:33;;;;;;;0.40;0.40;;;5.70;99.90;;;;;;5050876;28;20199;-55
2022/04/27 03:58:05;;;;;;;0.40;0.40;;;5.80;99.90;;;;;;5050412;28;20212;-54
2022/04/27 04:00:33;;;;;;;0.73;0.73;;;5.80;99.90;;;;;;5039151;28;20289;-54
2022/04/27 04:03:11;;;;;;;0.40;0.40;;;5.90;99.90;;;;;;5033453;28;20207;-54
2022/04/27 04:05:44;;;;;;;0.40;0.40;;;5.90;99.90;;;;;;5052961;28;20183;-54
2022/04/27 04:08:11;;;;;;;0.40;0.40;;;6.00;38.40;;;;;;5053500;28;20195;-54
2022/04/27 04:10:39;;;;;;;0.40;0.40;;;5.90;1.00;;;;;;5057326;28;21038;-54
2022/04/27 04:13:07;;;;;;;0.40;0.40;;;6.00;1.00;;;;;;5051243;28;20205;-54
2022/04/27 04:15:53;;;;;;;0.40;0.40;;;6.00;1.00;;;;;;5069968;28;20258;-54
2022/04/27 04:18:39;;;;;;;0.40;0.40;;;6.00;1.00;;;;;;5069033;28;20205;-54
2022/04/27 04:21:10;;;;;;;0.40;0.40;;;6.10;1.00;;;;;;5072364;28;20201;-54
2022/04/27 04:23:58;;;;;;;0.40;0.40;;;6.10;1.00;;;;;;5060420;28;20226;-54
2022/04/27 04:29:14;;;;;;;0.40;0.40;;;6.30;1.00;;;;;;5059592;28;20801;-54
2022/04/27 04:31:41;;;;;;;0.40;0.40;;;6.30;1.00;;;;;;5057625;28;20663;-54
2022/04/27 04:34:31;;;;;;;0.40;0.40;;;6.40;99.90;;;;;;5053480;28;20214;-55
2022/04/27 04:36:58;;;;;;;0.40;0.40;;;6.40;99.90;;;;;;5044735;28;20560;-53
2022/04/27 04:39:26;;;;;;;0.40;0.40;;;6.40;99.90;;;;;;5055438;28;20214;-54
2022/04/27 04:41:53;;;;;;;0.40;0.40;;;6.50;99.90;;;;;;5055613;28;20226;-54
2022/04/27 04:44:20;;;;;;;0.40;0.40;;;6.60;99.90;;;;;;5067058;28;20267;-53
2022/04/27 04:47:06;;;;;;;0.40;0.40;;;6.60;1.00;;;;;;5073009;28;20329;-53
2022/04/27 04:49:59;;;;;;;0.40;0.40;;;6.70;1.00;;;;;;5064888;28;20632;-53
2022/04/27 04:52:48;;;;;;;0.40;0.40;;;6.70;1.00;;;;;;5067660;28;20280;-54
2022/04/27 04:55:33;;;;;;;0.40;0.40;;;6.60;1.00;;;;;;5069044;28;20210;-55
2022/04/27 04:58:06;;;;;;;0.40;0.40;;;6.70;1.00;;;;;;5068521;28;20742;-54
2022/04/27 05:00:50;;;;;;;0.53;0.53;;;6.80;1.00;;;;;;5055779;28;20198;-54
2022/04/27 05:03:24;;;;;;;0.40;0.40;;;6.80;99.90;;;;;;5049704;28;20347;-55
2022/04/27 05:06:11;;;;;;;8.90;4.47;;;6.80;99.90;;;;;;5051293;28;20199;-54
2022/04/27 05:09:04;;;;;;;0.40;0.40;;;6.90;99.90;;;;;;5037273;28;20231;-54
2022/04/27 05:12:07;;;;;;;0.40;0.40;;;6.90;99.90;;;;;;5051477;28;20198;-55
2022/04/27 05:14:54;;;;;;;0.40;0.40;;;6.90;99.90;;;;;;5022739;28;20210;-54
2022/04/27 05:17:41;;;;;;;0.40;0.40;;;6.90;95.20;;;;;;5067975;28;20205;-54
2022/04/27 05:20:40;;;;;;;0.40;0.40;;;7.00;1.00;;;;;;5060804;28;20199;-54
2022/04/27 05:23:17;;;;;;;0.43;0.43;;;7.20;1.00;;;;;;5051110;28;20210;-54
2022/04/27 05:26:03;;;;;;;0.40;0.40;;;7.50;87.40;;;;;;5051124;28;20206;-54
2022/04/27 05:31:59;;;;;;;0.40;0.40;;;7.70;1.00;;;;;;5059595;28;20761;-54
2022/04/27 05:35:02;;;;;;;0.40;0.40;;;7.90;1.00;;;;;;5063677;28;20202;-54
2022/04/27 05:37:37;;;;;;;0.40;0.40;;;8.50;1.00;;;;;;5066813;28;20278;-55
2022/04/27 05:40:31;;;;;;;0.37;0.37;;;9.30;99.90;;;;;;5047483;28;20253;-53
2022/04/27 05:43:15;;;;;;;0.40;0.40;;;11.40;27.30;;;;;;5050762;28;20757;-56
2022/04/27 05:46:00;;;;;;;0.30;0.30;;;12.60;1.00;;;;;;5071288;28;20203;-53
2022/04/27 05:49:00;;;;;;;0.20;0.20;;;13.90;1.00;;;;;;5051256;28;20210;-53
2022/04/27 05:51:46;;;;;;;0.30;0.30;;;15.00;1.00;;;;;;5071215;28;20276;-54
2022/04/27 05:54:23;;;;;;;0.30;0.30;;;16.00;1.00;;;;;;5028315;28;20310;-54
2022/04/27 05:56:50;;;;;;;0.30;0.30;;;16.70;1.00;;;;;;5071463;28;20230;-55
2022/04/27 05:59:35;;;;;;;0.20;0.20;;;17.50;1.00;;;;;;5073190;28;20195;-55
2022/04/27 06:02:34;;;;;;;0.10;0.10;;;18.10;1.00;;;;;;5054170;28;20676;-55
2022/04/27 06:05:02;;;;;;;0.17;0.17;;;18.20;1.00;;;;;;5073612;28;20209;-53
2022/04/27 06:07:28;;;;;;;0.20;0.20;;;18.60;99.90;;;;;;5070243;28;20199;-55
2022/04/27 06:09:59;;;;;;;0.20;0.20;;;19.30;99.90;;;;;;5064015;28;20198;-54
2022/04/27 06:12:37;;;;;;;0.20;0.20;;;19.10;99.90;;;;;;5048975;28;20193;-54
2022/04/27 06:15:25;;;;;;;0.20;0.20;;;20.00;99.90;;;;;;5077679;28;20202;-54
2022/04/27 06:17:57;;;;;;;0.20;0.20;;;20.40;99.90;;;;;;5046176;28;20209;-55
2022/04/27 06:20:24;;;;;;;0.10;0.10;;;21.20;99.90;;;;;;5045932;28;20251;-54
2022/04/27 06:22:52;;;;;;;0.13;0.13;;;22.00;99.90;;;;;;5054471;28;20297;-55
2022/04/27 06:25:20;;;;;;;0.20;0.20;;;22.40;99.90;;;;;;5073411;28;20475;-55
2022/04/27 06:27:50;;;;;;;0.10;0.10;;;22.40;99.90;;;;;;5073551;28;20223;-55
2022/04/27 06:30:18;;;;;;;0.20;0.20;;;22.50;99.90;;;;;;5060235;28;20225;-55
2022/04/27 06:32:47;;;;;;;0.10;0.10;;;21.70;99.90;;;;;;5072922;28;20187;-55
2022/04/27 06:35:14;;;;;;;0.20;0.20;;;22.30;99.90;;;;;;5055035;28;20203;-55
2022/04/27 06:37:45;;;;;;;0.10;0.10;;;23.10;99.90;;;;;;5043090;28;20682;-55
2022/04/27 06:40:13;;;;;;;0.20;0.20;;;24.00;99.90;;;;;;5067952;28;20258;-55
2022/04/27 06:42:43;;;;;;;0.20;0.20;;;24.00;99.90;;;;;;5050351;28;20225;-55
2022/04/27 06:45:42;;;;;;;0.17;0.17;;;23.30;99.90;;;;;;5038453;28;20669;-54
2022/04/27 06:48:28;;;;;;;0.20;0.20;;;21.90;99.90;;;;;;5068636;28;20202;-54
2022/04/27 06:51:15;;;;;;;0.20;0.20;;;23.30;99.90;;;;;;5074511;28;20973;-58
2022/04/27 06:54:00;;;;;;;0.20;0.20;;;23.60;99.90;;;;;;5059676;28;20280;-55
2022/04/27 06:56:46;;;;;;;0.20;0.20;;;23.90;99.90;;;;;;5070232;28;20189;-55
2022/04/27 06:59:22;;;;;;;0.20;0.20;;;24.80;99.90;;;;;;5070075;28;20282;-55
2022/04/27 07:01:55;;;;;;;0.20;0.20;;;23.50;99.90;;;;;;5061229;28;20226;-55
2022/04/27 07:04:22;;;;;;;0.20;0.20;;;23.90;99.90;;;;;;5056035;28;20258;-55
2022/04/27 07:06:49;;;;;;;0.20;0.20;;;24.60;99.90;;;;;;5058001;28;20264;-54
2022/04/27 07:09:16;;;;;;;0.20;0.20;;;25.10;99.90;;;;;;5073050;28;20218;-55
2022/04/27 07:11:46;;;;;;;0.30;0.30;;;25.30;99.90;;;;;;5070302;28;20282;-54
2022/04/27 07:14:16;;;;;;;0.20;0.20;;;25.90;99.90;;;;;;5047387;28;20199;-55
2022/04/27 07:16:43;;;;;;;0.10;0.10;;;27.90;99.90;;;;;;5075212;28;20213;-54
2022/04/27 07:19:12;;;;;;;0.17;0.17;;;27.50;99.90;;;;;;5073947;28;20205;-55
2022/04/27 07:21:40;;;;;;;0.30;0.30;;;28.80;99.90;;;;;;5078696;28;20277;-56
2022/04/27 07:24:07;;;;;;;0.20;0.20;;;28.20;99.90;;;;;;5074442;28;20224;-54
2022/04/27 07:26:34;;;;;;;0.10;0.10;;;27.90;99.90;;;;;;5074097;28;20244;-54
2022/04/27 07:29:01;;;;;;;0.10;0.10;;;28.80;99.90;;;;;;5072384;28;20199;-54
2022/04/27 07:31:28;;;;;;;0.10;0.10;;;29.40;99.90;;;;;;5073056;28;20587;-54
2022/04/27 07:33:55;;;;;;;0.15;0.15;;;28.90;99.90;;;;;;5072858;28;20587;-55
2022/04/27 07:36:22;;;;;;;0.20;0.20;;;28.70;99.90;;;;;;5074043;28;20195;-55
2022/04/27 07:38:55;;;;;;;0.10;0.10;;;29.60;99.90;;;;;;5076209;28;20238;-54
2022/04/27 07:41:22;;;;;;;0.10;0.10;;;30.40;99.90;;;;;;5072622;28;20234;-59
2022/04/27 07:43:49;;;;;;;0.17;0.17;;;29.10;99.90;;;;;;5070267;28;20245;-55
2022/04/27 07:46:16;;;;;;;0.10;0.10;;;28.90;99.90;;;;;;5075634;28;20248;-55
2022/04/27 07:48:43;;;;;;;0.15;0.15;;;29.10;99.90;;;;;;5061621;28;20218;-54
2022/04/27 07:51:10;;;;;;;0.17;0.17;;;27.00;99.90;;;;;;5071947;28;20222;-54
2022/04/27 07:53:37;;;;;;;0.10;0.10;;;26.00;99.90;;;;;;5068185;28;20225;-54
2022/04/27 07:56:05;;;;;;;0.10;0.10;;;25.70;99.90;;;;;;5071018;28;20199;-54
2022/04/27 07:58:32;;;;;;;0.10;0.10;;;26.10;99.90;;;;;;5066768;28;20305;-54
2022/04/27 08:01:00;;;;;;;0.20;0.20;;;28.50;99.90;;;;;;5066694;28;20221;-55
2022/04/27 08:03:27;;;;;;;0.10;0.10;;;29.10;99.90;;;;;;5069517;28;20194;-54
2022/04/27 08:05:55;;;;;;;0.10;0.10;;;29.40;99.90;;;;;;5067995;28;20684;-55
2022/04/27 08:08:22;;;;;;;0.10;0.10;;;29.50;99.90;;;;;;5068884;28;20195;-54
2022/04/27 08:10:54;;;;;;;0.10;0.10;;;30.30;99.90;;;;;;5053452;28;20887;-55
2022/04/27 08:13:21;;;;;;;0.20;0.20;;;31.90;99.90;;;;;;5059061;28;20241;-55
2022/04/27 08:15:48;;;;;;;0.10;0.10;;;33.20;99.90;;;;;;5069464;28;20610;-55
2022/04/27 08:18:15;;;;;;;0.20;0.20;;;33.00;99.90;;;;;;5074103;28;20211;-55
2022/04/27 08:23:34;;;;;;;0.10;0.10;;;32.80;99.90;;;;;;5070609;28;20194;-55
2022/04/27 08:26:03;;;;;;;0.15;0.15;;;33.50;99.90;;;;;;5070520;28;20171;-55
2022/04/27 08:28:31;;;;;;;0.10;0.10;;;34.80;99.90;;;;;;5072300;28;20259;-56
2022/04/27 08:30:59;;;;;;;0.10;0.10;;;35.60;99.90;;;;;;5071529;28;20190;-55
2022/04/27 08:33:26;;;;;;;0.10;0.10;;;36.20;99.90;;;;;;5070632;28;20198;-55
2022/04/27 08:35:59;;;;;;;1.17;1.08;;;36.40;99.90;;;;;;5073485;28;20193;-56
2022/04/27 08:38:46;;;;;;;0.13;0.13;;;36.80;99.90;;;;;;5071575;28;20210;-56
2022/04/27 08:41:14;;;;;;;7.60;4.72;;;36.70;99.90;;;;;;5070314;28;20572;-55
2022/04/27 08:43:41;;;;;;;8.32;4.60;;;36.40;99.90;;;;;;5071088;28;20225;-55
2022/04/27 08:46:08;;;;;;;6.90;4.80;;;35.10;99.90;;;;;;5076104;28;20252;-56
2022/04/27 08:48:35;;;;;;;9.30;5.07;;;35.60;99.90;;;;;;5075220;28;20531;-56
2022/04/27 08:51:05;;;;;;;8.38;4.60;;;36.40;99.90;;;;;;5075794;28;20195;-55
2022/04/27 08:53:33;;;;;;;10.95;4.75;;;37.20;99.90;;;;;;5074441;28;20211;-56
2022/04/27 08:56:00;;;;;;;7.13;4.05;;;37.90;99.90;;;;;;5056406;28;20210;-55
2022/04/27 08:58:27;;;;;;;8.15;4.45;;;36.70;99.90;;;;;;5072991;28;20274;-55
2022/04/27 09:01:10;;;;;;;7.28;3.97;;;33.60;99.90;;;;;;5069399;28;20198;-55
2022/04/27 09:03:39;;;;;;;6.22;4.43;;;33.70;99.90;;;;;;5054218;28;20191;-55
2022/04/27 09:06:15;;;;;;;8.40;4.10;;;33.80;99.90;;;;;;5053327;28;20198;-55
2022/04/27 09:08:52;;;;;;;7.32;3.70;;;35.10;99.90;;;;;;5073635;28;20565;-55
2022/04/27 09:11:25;;;;;;;5.38;3.78;;;36.50;99.90;;;;;;5074072;28;20189;-56
2022/04/27 09:13:54;;;;;;;6.70;4.07;;;37.30;99.90;;;;;;5071124;28;20196;-56
2022/04/27 09:22:11;;;;;;;5.93;4.15;;;35.50;99.90;;;;;;5071132;28;20186;-55
2022/04/27 09:24:55;;;;;;;5.55;3.97;;;31.10;99.90;;;;;;5071957;28;21094;-55
2022/04/27 09:27:24;;;;;;;5.28;3.80;;;31.90;99.90;;;;;;5049927;28;20195;-55
2022/04/27 09:29:59;;;;;;;7.28;3.90;;;34.10;99.90;;;;;;5069110;28;20221;-55
2022/04/27 09:32:27;;;;;;;7.00;4.53;;;35.40;99.90;;;;;;5065459;28;20317;-55
2022/04/27 09:34:55;;;;;;;6.72;4.30;;;34.40;99.90;;;;;;5070013;28;20195;-55
2022/04/27 09:37:30;;;;;;;4.88;4.15;;;35.70;99.90;;;;;;5074280;28;20206;-56
2022/04/27 09:40:06;;;;;;;5.53;3.63;;;35.80;99.90;;;;;;5073655;28;20220;-56
2022/04/27 09:42:38;;;;;;;6.63;4.13;;;37.00;99.90;;;;;;5072791;28;20189;-56
2022/04/27 09:45:15;;;;;;;5.30;4.32;;;36.20;99.90;;;;;;5068964;28;20259;-55
2022/04/27 09:48:03;;;;;;;5.50;4.15;;;35.00;99.90;;;;;;5072219;28;20569;-55
2022/04/27 09:51:01;;;;;;;7.25;4.10;;;36.10;99.90;;;;;;5075871;28;20190;-55
2022/04/27 09:53:29;;;;;;;7.15;4.40;;;37.10;99.90;;;;;;5056571;28;20226;-55
2022/04/27 09:55:56;;;;;;;6.32;4.43;;;36.90;99.90;;;;;;5069857;28;21549;-55
2022/04/27 09:58:26;;;;;;;6.43;4.28;;;36.60;99.90;;;;;;5068791;28;20194;-55
2022/04/27 10:00:57;;;;;;;6.88;4.40;;;35.80;99.90;;;;;;5054681;28;20715;-55
2022/04/27 10:03:25;;;;;;;4.88;3.97;;;34.00;99.90;;;;;;5075589;28;20615;-55
2022/04/27 10:05:53;;;;;;;8.43;5.40;;;34.60;99.90;;;;;;5076475;28;20252;-55
2022/04/27 10:08:21;;;;;;;9.43;5.22;;;34.40;99.90;;;;;;5070707;28;20215;-55
2022/04/27 10:10:49;;;;;;;7.82;4.43;;;33.40;99.90;;;;;;5057607;28;20206;-55
2022/04/27 10:13:20;;;;;;;6.72;4.65;;;33.80;99.90;;;;;;5054208;28;20419;-55
2022/04/27 10:15:48;;;;;;;5.88;4.60;;;34.00;99.90;;;;;;5070909;28;20245;-55
2022/04/27 10:18:17;;;;;;;6.57;4.57;;;33.80;99.90;;;;;;5067993;28;20217;-57
2022/04/27 10:20:45;;;;;;;6.60;4.93;;;34.40;99.90;;;;;;5073466;28;20194;-55
2022/04/27 10:23:19;;;;;;;6.95;4.63;;;34.50;99.90;;;;;;5071344;28;20195;-56
2022/04/27 10:26:18;;;;;;;7.15;5.20;;;34.40;99.90;;;;;;5068731;28;20207;-56
2022/04/27 10:28:48;;;;;;;6.85;5.15;;;33.00;99.90;;;;;;5070433;28;20220;-55
2022/04/27 10:31:40;;;;;;;7.25;5.30;;;31.60;99.90;;;;;;5071162;28;20187;-55
2022/04/27 10:34:17;;;;;;;7.60;5.10;;;31.10;99.90;;;;;;5062637;28;20201;-56
2022/04/27 10:36:50;;;;;;;6.97;5.10;;;31.60;99.90;;;;;;5070326;28;20228;-56
2022/04/27 10:39:21;;;;;;;5.97;5.35;;;31.60;99.90;;;;;;5071009;28;20256;-58
2022/04/27 10:41:57;;;;;;;7.28;4.82;;;32.10;99.90;;;;;;5072128;28;21419;-55
2022/04/27 10:44:53;;;;;;;8.98;5.18;;;32.90;99.90;;;;;;5062209;28;20221;-56
2022/04/27 10:47:23;;;;;;;5.60;4.90;;;32.50;99.90;;;;;;5068750;28;20186;-55
2022/04/27 10:50:13;;;;;;;6.60;5.00;;;32.20;99.90;;;;;;5072015;28;20622;-57
2022/04/27 10:52:53;;;;;;;7.03;5.10;;;32.00;99.90;;;;;;5046565;28;20205;-56
2022/04/27 10:55:50;;;;;;;6.50;5.20;;;32.30;99.90;;;;;;5053969;28;20185;-55
2022/04/27 10:58:31;;;;;;;7.10;4.75;;;31.90;99.90;;;;;;5072342;28;20230;-55
2022/04/27 11:01:01;;;;;;;6.95;5.57;;;32.10;99.90;;;;;;5069474;28;20585;-55
2022/04/27 11:03:36;;;;;;;6.93;5.45;;;30.80;99.90;;;;;;5070623;28;20285;-55
2022/04/27 11:06:09;;;;;;;8.00;5.40;;;27.90;99.90;;;;;;5071115;28;20206;-56
2022/04/27 11:08:35;;;;;;;8.75;5.75;;;27.10;99.90;;;;;;5069129;28;20202;-56
2022/04/27 11:11:08;;;;;;;7.07;5.15;;;28.10;99.90;;;;;;5070051;28;20222;-56
2022/04/27 11:13:37;;;;;;;5.80;4.85;;;29.30;99.90;;;;;;5066239;28;20687;-56
2022/04/27 11:16:21;;;;;;;8.25;5.55;;;29.60;99.90;;;;;;5071566;28;20194;-56
2022/04/27 11:18:55;;;;;;;7.75;5.63;;;28.60;99.90;;;;;;5056838;28;20198;-55
2022/04/27 11:21:25;;;;;;;5.97;4.97;;;28.90;99.90;;;;;;5036607;28;20205;-57
2022/04/27 11:23:53;;;;;;;8.25;5.43;;;29.20;99.90;;;;;;5072581;28;20230;-56
2022/04/27 11:26:21;;;;;;;7.57;5.60;;;30.20;99.90;;;;;;5063283;28;20338;-56
2022/04/27 11:28:49;;;;;;;6.25;5.03;;;30.00;99.90;;;;;;5055958;28;20194;-56
2022/04/27 11:31:16;;;;;;;7.82;5.65;;;30.40;99.90;;;;;;5052818;28;20206;-55
2022/04/27 11:33:43;;;;;;;9.18;6.32;;;29.70;99.90;;;;;;5073012;28;20918;-56
2022/04/27 11:36:24;;;;;;;10.82;6.47;;;29.40;99.90;;;;;;5073247;28;20788;-56
2022/04/27 11:38:51;;;;;;;7.78;5.97;;;29.30;99.90;;;;;;5073719;28;20225;-56
2022/04/27 11:41:21;;;;;;;8.10;5.43;;;28.20;99.90;;;;;;5070773;28;20234;-60
2022/04/27 11:43:50;;;;;;;10.82;6.03;;;29.40;99.90;;;;;;5056981;28;20194;-56
2022/04/27 11:46:18;;;;;;;7.88;5.95;;;28.90;99.90;;;;;;5074609;28;20271;-55
2022/04/27 11:48:48;;;;;;;9.98;5.53;;;28.00;99.90;;;;;;5074308;28;20564;-56
2022/04/27 11:51:16;;;;;;;7.05;5.45;;;27.30;99.90;;;;;;5071676;28;20190;-56
2022/04/27 11:53:48;;;;;;;6.45;5.53;;;28.10;99.90;;;;;;5075749;28;20293;-55
2022/04/27 11:56:17;;;;;;;8.20;5.32;;;28.50;99.90;;;;;;5065344;28;20195;-55
2022/04/27 11:58:45;;;;;;;9.60;5.72;;;28.50;99.90;;;;;;5071332;28;20202;-56
2022/04/27 12:01:22;;;;;;;8.57;5.80;;;28.80;99.90;;;;;;5070213;28;21117;-56
2022/04/27 12:03:50;;;;;;;6.22;5.50;;;28.90;99.90;;;;;;5064657;28;20198;-56
2022/04/27 12:06:19;;;;;;;8.88;5.88;;;28.00;99.90;;;;;;5073659;28;20320;-55
2022/04/27 12:08:46;;;;;;;6.97;5.55;;;26.30;99.90;;;;;;5074493;28;20259;-55
2022/04/27 12:11:23;;;;;;;7.00;5.90;;;26.60;99.90;;;;;;5072357;28;20229;-55
2022/04/27 12:13:54;;;;;;;7.03;6.32;;;26.40;99.90;;;;;;5073962;28;20191;-55
2022/04/27 12:16:21;;;;;;;9.32;6.50;;;26.70;99.90;;;;;;5063738;28;20222;-55
2022/04/27 12:18:56;;;;;;;7.55;6.65;;;25.80;99.90;;;;;;5072584;28;20206;-56
2022/04/27 12:21:27;;;;;;;12.48;7.00;;;25.30;99.90;;;;;;5071782;28;20255;-56
2022/04/27 12:23:57;;;;;;;8.30;6.93;;;24.50;99.90;;;;;;5068674;28;20193;-55
2022/04/27 12:26:42;;;;;;;10.02;7.32;;;25.10;99.90;;;;;;5064660;28;20217;-56
2022/04/27 12:29:09;;;;;;;10.55;7.50;;;25.20;99.90;;;;;;5048369;28;20199;-55
2022/04/27 12:31:37;;;;;;;9.15;7.85;;;24.10;99.90;;;;;;5064381;28;20195;-55
2022/04/27 12:37:29;;;;;;;12.43;8.40;;;23.40;99.90;;;;;;5064099;28;20195;-56
2022/04/27 12:39:40;;;;;;;11.55;8.20;;;23.60;99.90;;;;;;5066390;28;20238;-56
2022/04/27 12:42:09;;;;;;;9.82;8.50;;;22.40;99.90;;;;;;5062453;28;20231;-55
2022/04/27 12:44:42;;;;;;;11.50;8.40;;;20.20;99.90;;;;;;5049045;28;20202;-56
2022/04/27 12:47:13;;;;;;;9.98;8.68;;;20.60;99.90;;;;;;5068146;28;20187;-55
2022/04/27 12:49:45;;;;;;;12.00;9.00;;;22.40;99.90;;;;;;5071065;28;20650;-55
2022/04/27 12:52:26;;;;;;;9.48;8.57;;;22.30;99.90;;;;;;5056430;28;20209;-55
2022/04/27 12:55:07;;;;;;;12.38;8.20;;;23.00;99.90;;;;;;5069667;28;20214;-56
2022/04/27 12:57:48;;;;;;;11.13;9.32;;;23.00;99.90;;;;;;5065675;28;20316;-55
2022/04/27 13:00:17;;;;;;;13.15;9.13;;;22.10;99.90;;;;;;5072836;28;20182;-56
2022/04/27 13:02:44;;;;;;;9.68;8.25;;;22.00;99.90;;;;;;5071004;28;20657;-55
2022/04/27 13:05:15;;;;;;;11.05;8.55;;;21.90;99.90;;;;;;5071778;28;20203;-55
2022/04/27 13:07:42;;;;;;;13.73;9.18;;;22.30;99.90;;;;;;5059618;28;20187;-55
2022/04/27 13:12:56;;;;;;;12.45;8.95;;;21.60;99.90;;;;;;5071010;28;20196;-55
2022/04/27 13:15:23;;;;;;;12.85;9.23;;;22.00;99.90;;;;;;5074250;28;20217;-55
2022/04/27 13:17:50;;;;;;;11.38;9.05;;;22.10;99.90;;;;;;5073965;28;20209;-55
2022/04/27 13:20:18;;;;;;;11.35;8.70;;;22.00;99.90;;;;;;5074282;28;20202;-55
2022/04/27 13:22:45;;;;;;;11.90;9.07;;;22.00;99.90;;;;;;5075137;28;20778;-55
2022/04/27 13:25:12;;;;;;;14.15;10.18;;;21.80;99.90;;;;;;5053133;28;20217;-55
2022/04/27 13:27:41;;;;;;;12.63;9.13;;;20.50;99.90;;;;;;5076551;28;20300;-56
2022/04/27 13:30:09;;;;;;;11.50;9.45;;;20.40;99.90;;;;;;5069488;28;20274;-56
2022/04/27 13:32:38;;;;;;;10.23;9.00;;;20.80;99.90;;;;;;5071311;28;20186;-56
2022/04/27 13:35:06;;;;;;;12.88;9.30;;;20.20;99.90;;;;;;5072019;28;20237;-56
2022/04/27 13:37:33;;;;;;;16.70;13.15;;;20.30;99.90;;;;;;5070245;28;20198;-55
2022/04/27 13:40:00;;;;;;;11.38;9.43;;;20.30;99.90;;;;;;5066290;28;20248;-55
2022/04/27 13:42:27;;;;;;;13.52;9.88;;;20.10;99.90;;;;;;5062767;28;20244;-56
2022/04/27 13:44:55;;;;;;;12.32;9.85;;;19.70;99.90;;;;;;5070696;28;20199;-56